createdAt,value
2022-09-15T00:00:46.140Z,38.2
2022-09-15T00:07:11.646Z,38.11
2022-09-15T00:13:44.141Z,38.18
2022-09-15T00:20:15.383Z,38.22
2022-09-15T00:26:43.181Z,38.11
2022-09-15T00:33:10.952Z,37.71
2022-09-15T00:39:38.174Z,38.07
2022-09-15T00:46:13.594Z,38.11
2022-09-15T00:53:09.126Z,38.16
2022-09-15T01:00:17.213Z,38.08
2022-09-15T01:06:56.626Z,38.18
2022-09-15T01:13:50.186Z,38.19
2022-09-15T01:20:39.730Z,38.27
2022-09-15T01:27:48.264Z,38.25
2022-09-15T01:34:55.075Z,38.17
2022-09-15T01:41:59.703Z,38.11
2022-09-15T01:48:48.088Z,38.14
2022-09-15T01:55:46.182Z,38.06
2022-09-15T02:02:29.432Z,38.13
2022-09-15T02:09:40.100Z,38.15
2022-09-15T02:16:56.211Z,38.16
2022-09-15T02:24:14.648Z,38
2022-09-15T02:31:11.441Z,38.11
2022-09-15T02:37:57.177Z,38.16
2022-09-15T02:44:59.640Z,38.1
2022-09-15T02:51:34.678Z,38.21
2022-09-15T02:58:18.670Z,38.24
2022-09-15T03:04:54.181Z,38.2
2022-09-15T03:11:34.507Z,38.21
2022-09-15T03:18:14.472Z,38.16
2022-09-15T03:24:46.353Z,38.13
2022-09-15T03:31:11.168Z,38.19
2022-09-15T03:37:46.556Z,38.14
2022-09-15T03:44:10.633Z,38.25
2022-09-15T03:50:39.379Z,38.2
2022-09-15T03:57:11.846Z,38.13
2022-09-15T04:03:50.799Z,38.23
2022-09-15T04:10:22.268Z,38.14
2022-09-15T04:16:52.091Z,38.19
2022-09-15T04:23:24.166Z,38.17
2022-09-15T04:29:51.475Z,38.15
2022-09-15T04:36:20.268Z,38.11
2022-09-15T04:42:58.354Z,38.18
2022-09-15T04:49:28.284Z,38.18
2022-09-15T04:56:00.653Z,38.22
2022-09-15T05:02:43.152Z,38.22
2022-09-15T05:09:10.725Z,38.29
2022-09-15T05:15:45.686Z,38.27
2022-09-15T05:22:15.490Z,38.28
2022-09-15T05:28:40.716Z,38.26
2022-09-15T05:35:12.200Z,38.29
2022-09-15T05:41:51.270Z,38.22
2022-09-15T05:48:26.874Z,38.23
2022-09-15T05:54:59.218Z,38.18
2022-09-15T06:01:22.500Z,38.21
2022-09-15T06:07:54.161Z,38.23
2022-09-15T06:14:22.317Z,38.2
2022-09-15T06:20:57.115Z,38.12
2022-09-15T06:27:29.507Z,38.07
2022-09-15T06:34:00.714Z,38.08
2022-09-15T06:40:26.754Z,38.04
2022-09-15T06:46:56.250Z,37.92
2022-09-15T06:53:29.301Z,38.03
2022-09-15T06:59:57.280Z,38.03
2022-09-15T07:06:31.715Z,38.12
2022-09-15T07:12:54.813Z,38.18
2022-09-15T07:19:22.815Z,38.21
2022-09-15T07:25:58.920Z,38.18
2022-09-15T07:32:26.390Z,38.21
2022-09-15T07:38:58.347Z,38.26
2022-09-15T07:45:30.272Z,38.16
2022-09-15T07:52:18.795Z,38.33
2022-09-15T07:59:00.721Z,38.19
2022-09-15T08:05:41.330Z,38.16
2022-09-15T08:12:22.607Z,38.29
2022-09-15T08:18:48.457Z,38.07
2022-09-15T08:25:16.886Z,38.32
2022-09-15T08:31:46.783Z,38.17
2022-09-15T08:38:10.918Z,38.37
2022-09-15T08:45:00.045Z,38.31
2022-09-15T08:51:51.197Z,38.33
2022-09-15T08:58:39.509Z,38.34
2022-09-15T09:05:24.977Z,38.38
2022-09-15T09:12:35.346Z,38.47
2022-09-15T09:19:37.370Z,38.47
2022-09-15T09:26:40.431Z,38.37
2022-09-15T09:33:28.445Z,38.28
2022-09-15T09:40:31.185Z,38.24
2022-09-15T09:47:08.331Z,38.26
2022-09-15T09:54:01.463Z,38.22
2022-09-15T10:01:05.589Z,38.06
2022-09-15T10:08:03.458Z,38.12
2022-09-15T10:15:13.442Z,38.07
2022-09-15T10:22:03.675Z,38.11
2022-09-15T10:28:57.569Z,38.12
2022-09-15T10:35:52.819Z,38.13
2022-09-15T10:42:58.934Z,38.14
2022-09-15T10:50:06.220Z,38.14
2022-09-15T10:57:18.413Z,38.09
2022-09-15T11:04:28.269Z,38.12
2022-09-15T11:11:43.846Z,38.15
2022-09-15T11:18:38.657Z,38.12
2022-09-15T11:25:36.898Z,38.16
2022-09-15T11:32:55.799Z,38.09
2022-09-15T11:39:57.618Z,38.08
2022-09-15T11:46:57.610Z,38
2022-09-15T11:54:06.933Z,37.98
2022-09-15T12:01:02.346Z,37.93
2022-09-15T12:08:23.575Z,37.85
2022-09-15T12:15:17.864Z,37.77
2022-09-15T12:22:12.893Z,37.76
2022-09-15T12:29:17.376Z,37.78
2022-09-15T12:36:07.513Z,37.7
2022-09-15T12:43:08.933Z,37.68
2022-09-15T12:50:07.353Z,37.53
2022-09-15T12:57:03.446Z,37.66
2022-09-15T13:04:01.641Z,37.77
2022-09-15T13:10:58.947Z,37.94
2022-09-15T13:17:53.739Z,37.8
2022-09-15T13:24:44.034Z,37.99
2022-09-15T13:31:30.670Z,37.97
2022-09-15T13:38:39.648Z,37.98
2022-09-15T13:45:50.474Z,37.96
2022-09-15T13:52:59.894Z,37.99
2022-09-15T13:59:43.569Z,37.99
2022-09-15T14:06:24.976Z,38.02
2022-09-15T14:13:11.335Z,38.02
2022-09-15T14:19:50.953Z,37.88
2022-09-15T14:26:30.402Z,37.99
2022-09-15T14:33:04.938Z,37.93
2022-09-15T14:39:45.648Z,38.02
2022-09-15T14:46:48.091Z,37.93
2022-09-15T14:53:33.826Z,37.84
2022-09-15T15:00:35.505Z,37.63
2022-09-15T15:07:40.953Z,37.67
2022-09-15T15:14:26.825Z,37.68
2022-09-15T15:21:22.593Z,37.84
2022-09-15T15:28:19.582Z,37.85
2022-09-15T15:35:12.417Z,37.8
2022-09-15T15:42:02.653Z,37.71
2022-09-15T15:48:50.684Z,37.89
2022-09-15T15:55:22.684Z,37.86
2022-09-15T16:02:09.059Z,37.89
2022-09-15T16:08:43.486Z,37.83
2022-09-15T16:15:13.643Z,37.85
2022-09-15T16:21:41.719Z,37.84
2022-09-15T16:28:16.461Z,37.84
2022-09-15T16:34:54.531Z,37.87
2022-09-15T16:41:39.320Z,37.89
2022-09-15T16:48:11.033Z,37.91
2022-09-15T16:54:40.602Z,37.97
2022-09-15T17:01:15.001Z,38.03
2022-09-15T17:07:50.507Z,38.09
2022-09-15T17:14:15.121Z,38.15
2022-09-15T17:20:47.152Z,38.03
2022-09-15T17:27:25.077Z,37.97
2022-09-15T17:34:01.029Z,37.97
2022-09-15T17:40:30.149Z,37.96
2022-09-15T17:47:09.037Z,38.15
2022-09-15T17:53:35.623Z,38.19
2022-09-15T18:00:00.635Z,38.14
2022-09-15T18:06:35.382Z,38.09
2022-09-15T18:13:12.621Z,38.04
2022-09-15T18:19:52.058Z,37.98
2022-09-15T18:26:29.796Z,38.1
2022-09-15T18:32:50.669Z,38.24
2022-09-15T18:39:21.882Z,38.18
2022-09-15T18:46:00.685Z,38.24
2022-09-15T18:52:33.955Z,38.32
2022-09-15T18:58:58.615Z,38.37
2022-09-15T19:05:26.963Z,38.29
2022-09-15T19:12:00.644Z,38.45
2022-09-15T19:18:37.122Z,38.31
2022-09-15T19:25:03.816Z,38.39
2022-09-15T19:31:31.720Z,38.37
2022-09-15T19:38:01.701Z,38.44
2022-09-15T19:44:28.383Z,38.38
2022-09-15T19:51:00.035Z,38.38
2022-09-15T19:57:29.789Z,38.36
2022-09-15T20:03:57.079Z,38.31
2022-09-15T20:10:23.822Z,38.41
2022-09-15T20:17:01.107Z,38.21
2022-09-15T20:23:36.805Z,38.32
2022-09-15T20:30:04.724Z,38.35
2022-09-15T20:36:38.610Z,38.42
2022-09-15T20:43:04.613Z,38.38
2022-09-15T20:49:48.319Z,38.4
2022-09-15T20:56:14.998Z,38.43
2022-09-15T21:02:43.015Z,38.52
2022-09-15T21:09:25.919Z,38.35
2022-09-15T21:16:02.368Z,38.19
2022-09-15T21:22:46.678Z,37.98
2022-09-15T21:29:23.783Z,37.95
2022-09-15T21:35:53.163Z,37.73
2022-09-15T21:42:21.144Z,38.07
2022-09-15T21:48:59.253Z,38.07
2022-09-15T21:55:28.626Z,37.71
2022-09-15T22:02:00.772Z,38.19
2022-09-15T22:08:24.694Z,38.28
2022-09-15T22:14:56.848Z,38.07
2022-09-15T22:21:23.741Z,38.15
2022-09-15T22:27:52.796Z,38.19
2022-09-15T22:34:29.698Z,38.18
2022-09-15T22:41:06.697Z,38.09
2022-09-15T22:47:43.743Z,37.9
2022-09-15T22:54:18.381Z,37.81
2022-09-15T23:00:51.855Z,37.96
2022-09-15T23:07:14.878Z,38.27
2022-09-15T23:13:44.826Z,38.02
2022-09-15T23:20:14.768Z,38.29
2022-09-15T23:26:54.870Z,38.4
2022-09-15T23:33:17.327Z,38.36
2022-09-15T23:39:52.125Z,38.41
2022-09-15T23:46:30.797Z,38.41
2022-09-15T23:52:52.852Z,38.33
2022-09-15T23:59:20.390Z,38.29
